sensor_id;sensor_type;location;lat;lon;timestamp;P1;durP1;ratioP1;P2;durP2;ratioP2
69260;SDS011;56378;52.404;20.816;2023-02-01T00:01:38;13.97;;;6.50;;
69260;SDS011;56378;52.404;20.816;2023-02-01T00:04:04;12.93;;;5.78;;
69260;SDS011;56378;52.404;20.816;2023-02-01T00:06:30;12.65;;;6.13;;
69260;SDS011;56378;52.404;20.816;2023-02-01T00:08:55;15.50;;;5.60;;
69260;SDS011;56378;52.404;20.816;2023-02-01T00:11:21;14.25;;;6.10;;
69260;SDS011;56378;52.404;20.816;2023-02-01T00:13:47;12.80;;;5.65;;
69260;SDS011;56378;52.404;20.816;2023-02-01T00:16:14;13.63;;;5.43;;
69260;SDS011;56378;52.404;20.816;2023-02-01T00:18:42;10.85;;;5.30;;
69260;SDS011;56378;52.404;20.816;2023-02-01T00:21:13;11.65;;;4.97;;
69260;SDS011;56378;52.404;20.816;2023-02-01T00:23:39;9.52;;;4.75;;
69260;SDS011;56378;52.404;20.816;2023-02-01T00:26:10;10.97;;;4.17;;
69260;SDS011;56378;52.404;20.816;2023-02-01T00:28:42;9.98;;;4.25;;
69260;SDS011;56378;52.404;20.816;2023-02-01T00:31:08;9.82;;;4.30;;
69260;SDS011;56378;52.404;20.816;2023-02-01T00:33:34;9.83;;;3.40;;
69260;SDS011;56378;52.404;20.816;2023-02-01T00:36:00;7.05;;;2.50;;
69260;SDS011;56378;52.404;20.816;2023-02-01T00:38:31;7.07;;;3.00;;
69260;SDS011;56378;52.404;20.816;2023-02-01T00:41:05;7.53;;;2.58;;
69260;SDS011;56378;52.404;20.816;2023-02-01T00:43:42;6.63;;;2.30;;
69260;SDS011;56378;52.404;20.816;2023-02-01T00:46:08;6.82;;;2.08;;
69260;SDS011;56378;52.404;20.816;2023-02-01T00:48:34;7.68;;;2.58;;
69260;SDS011;56378;52.404;20.816;2023-02-01T00:51:04;7.47;;;1.98;;
69260;SDS011;56378;52.404;20.816;2023-02-01T00:53:32;6.60;;;1.70;;
69260;SDS011;56378;52.404;20.816;2023-02-01T00:55:58;9.38;;;2.20;;
69260;SDS011;56378;52.404;20.816;2023-02-01T00:58:24;8.27;;;2.30;;
69260;SDS011;56378;52.404;20.816;2023-02-01T01:03:37;6.28;;;2.42;;
69260;SDS011;56378;52.404;20.816;2023-02-01T01:06:05;8.77;;;1.88;;
69260;SDS011;56378;52.404;20.816;2023-02-01T01:08:34;6.85;;;2.20;;
69260;SDS011;56378;52.404;20.816;2023-02-01T01:11:10;7.70;;;2.20;;
69260;SDS011;56378;52.404;20.816;2023-02-01T01:13:39;4.93;;;1.90;;
69260;SDS011;56378;52.404;20.816;2023-02-01T01:16:06;8.32;;;1.98;;
69260;SDS011;56378;52.404;20.816;2023-02-01T01:18:33;6.32;;;2.25;;
69260;SDS011;56378;52.404;20.816;2023-02-01T01:20:59;6.78;;;1.90;;
69260;SDS011;56378;52.404;20.816;2023-02-01T01:23:26;8.55;;;1.52;;
69260;SDS011;56378;52.404;20.816;2023-02-01T01:25:52;6.38;;;1.58;;
69260;SDS011;56378;52.404;20.816;2023-02-01T01:28:18;8.25;;;1.60;;
69260;SDS011;56378;52.404;20.816;2023-02-01T01:30:43;9.05;;;1.20;;
69260;SDS011;56378;52.404;20.816;2023-02-01T01:33:09;5.30;;;1.33;;
69260;SDS011;56378;52.404;20.816;2023-02-01T01:35:35;6.10;;;1.48;;
69260;SDS011;56378;52.404;20.816;2023-02-01T01:38:01;6.30;;;1.40;;
69260;SDS011;56378;52.404;20.816;2023-02-01T01:40:27;6.10;;;1.27;;
69260;SDS011;56378;52.404;20.816;2023-02-01T01:42:54;5.38;;;1.20;;
69260;SDS011;56378;52.404;20.816;2023-02-01T01:45:31;4.97;;;1.30;;
69260;SDS011;56378;52.404;20.816;2023-02-01T01:48:41;5.65;;;1.33;;
69260;SDS011;56378;52.404;20.816;2023-02-01T01:51:02;10.43;;;1.60;;
69260;SDS011;56378;52.404;20.816;2023-02-01T01:53:33;7.25;;;1.60;;
69260;SDS011;56378;52.404;20.816;2023-02-01T01:56:13;6.90;;;1.77;;
69260;SDS011;56378;52.404;20.816;2023-02-01T01:58:39;5.20;;;1.40;;
69260;SDS011;56378;52.404;20.816;2023-02-01T02:01:06;6.00;;;1.65;;
69260;SDS011;56378;52.404;20.816;2023-02-01T02:03:36;6.43;;;1.30;;
69260;SDS011;56378;52.404;20.816;2023-02-01T02:06:06;7.80;;;1.45;;
69260;SDS011;56378;52.404;20.816;2023-02-01T02:08:39;6.85;;;1.70;;
69260;SDS011;56378;52.404;20.816;2023-02-01T02:11:05;8.97;;;1.43;;
69260;SDS011;56378;52.404;20.816;2023-02-01T02:13:38;6.72;;;1.52;;
69260;SDS011;56378;52.404;20.816;2023-02-01T02:24:19;6.70;;;1.30;;
69260;SDS011;56378;52.404;20.816;2023-02-01T02:39:01;8.07;;;1.77;;
69260;SDS011;56378;52.404;20.816;2023-02-01T02:42:08;10.30;;;1.88;;
69260;SDS011;56378;52.404;20.816;2023-02-01T02:48:12;10.50;;;2.00;;
69260;SDS011;56378;52.404;20.816;2023-02-01T02:50:51;11.25;;;1.73;;
69260;SDS011;56378;52.404;20.816;2023-02-01T02:56:46;6.93;;;1.60;;
69260;SDS011;56378;52.404;20.816;2023-02-01T02:59:32;9.65;;;1.42;;
69260;SDS011;56378;52.404;20.816;2023-02-01T03:02:17;8.73;;;1.77;;
69260;SDS011;56378;52.404;20.816;2023-02-01T03:05:03;9.52;;;1.70;;
69260;SDS011;56378;52.404;20.816;2023-02-01T03:13:16;7.60;;;1.55;;
69260;SDS011;56378;52.404;20.816;2023-02-01T03:24:41;10.68;;;1.50;;
69260;SDS011;56378;52.404;20.816;2023-02-01T03:27:18;9.52;;;2.30;;
69260;SDS011;56378;52.404;20.816;2023-02-01T03:29:48;9.25;;;1.67;;
69260;SDS011;56378;52.404;20.816;2023-02-01T03:32:17;11.52;;;2.50;;
69260;SDS011;56378;52.404;20.816;2023-02-01T03:34:43;13.68;;;2.20;;
69260;SDS011;56378;52.404;20.816;2023-02-01T03:37:10;11.90;;;2.47;;
69260;SDS011;56378;52.404;20.816;2023-02-01T03:39:44;17.25;;;2.67;;
69260;SDS011;56378;52.404;20.816;2023-02-01T03:42:15;9.23;;;2.22;;
69260;SDS011;56378;52.404;20.816;2023-02-01T03:44:47;13.32;;;2.80;;
69260;SDS011;56378;52.404;20.816;2023-02-01T03:47:22;18.38;;;3.20;;
69260;SDS011;56378;52.404;20.816;2023-02-01T03:49:54;19.50;;;3.40;;
69260;SDS011;56378;52.404;20.816;2023-02-01T03:52:28;16.02;;;3.60;;
69260;SDS011;56378;52.404;20.816;2023-02-01T03:55:05;16.35;;;3.25;;
69260;SDS011;56378;52.404;20.816;2023-02-01T03:57:37;18.92;;;3.95;;
69260;SDS011;56378;52.404;20.816;2023-02-01T04:00:14;17.02;;;2.55;;
69260;SDS011;56378;52.404;20.816;2023-02-01T04:02:42;14.13;;;3.67;;
69260;SDS011;56378;52.404;20.816;2023-02-01T04:05:08;17.37;;;3.37;;
69260;SDS011;56378;52.404;20.816;2023-02-01T04:07:34;11.57;;;2.10;;
69260;SDS011;56378;52.404;20.816;2023-02-01T04:10:00;14.50;;;2.53;;
69260;SDS011;56378;52.404;20.816;2023-02-01T04:12:25;14.20;;;3.30;;
69260;SDS011;56378;52.404;20.816;2023-02-01T04:14:52;16.85;;;4.05;;
69260;SDS011;56378;52.404;20.816;2023-02-01T04:17:18;19.27;;;4.20;;
69260;SDS011;56378;52.404;20.816;2023-02-01T04:19:43;17.77;;;3.40;;
69260;SDS011;56378;52.404;20.816;2023-02-01T04:22:09;12.83;;;2.40;;
69260;SDS011;56378;52.404;20.816;2023-02-01T04:24:35;12.23;;;2.43;;
69260;SDS011;56378;52.404;20.816;2023-02-01T04:27:01;9.13;;;1.40;;
69260;SDS011;56378;52.404;20.816;2023-02-01T04:29:27;10.57;;;1.50;;
69260;SDS011;56378;52.404;20.816;2023-02-01T04:31:53;8.88;;;1.58;;
69260;SDS011;56378;52.404;20.816;2023-02-01T04:34:19;7.50;;;1.67;;
69260;SDS011;56378;52.404;20.816;2023-02-01T04:36:44;8.47;;;1.70;;
69260;SDS011;56378;52.404;20.816;2023-02-01T04:39:10;9.57;;;1.52;;
69260;SDS011;56378;52.404;20.816;2023-02-01T04:41:36;10.23;;;1.47;;
69260;SDS011;56378;52.404;20.816;2023-02-01T04:44:02;13.05;;;1.50;;
69260;SDS011;56378;52.404;20.816;2023-02-01T04:46:27;10.70;;;1.73;;
69260;SDS011;56378;52.404;20.816;2023-02-01T04:48:53;6.03;;;1.30;;
69260;SDS011;56378;52.404;20.816;2023-02-01T04:51:19;9.67;;;2.10;;
69260;SDS011;56378;52.404;20.816;2023-02-01T04:53:45;7.07;;;1.30;;
69260;SDS011;56378;52.404;20.816;2023-02-01T04:56:10;10.50;;;1.80;;
69260;SDS011;56378;52.404;20.816;2023-02-01T04:58:36;9.17;;;1.33;;
69260;SDS011;56378;52.404;20.816;2023-02-01T05:01:02;11.85;;;1.30;;
69260;SDS011;56378;52.404;20.816;2023-02-01T05:03:30;10.60;;;1.73;;
69260;SDS011;56378;52.404;20.816;2023-02-01T05:05:59;11.68;;;1.70;;
69260;SDS011;56378;52.404;20.816;2023-02-01T05:08:25;10.00;;;1.60;;
69260;SDS011;56378;52.404;20.816;2023-02-01T05:10:52;9.07;;;1.50;;
69260;SDS011;56378;52.404;20.816;2023-02-01T05:13:18;13.70;;;1.60;;
69260;SDS011;56378;52.404;20.816;2023-02-01T05:16:02;12.70;;;1.43;;
69260;SDS011;56378;52.404;20.816;2023-02-01T05:18:28;12.18;;;1.40;;
69260;SDS011;56378;52.404;20.816;2023-02-01T05:20:54;8.05;;;1.38;;
69260;SDS011;56378;52.404;20.816;2023-02-01T05:23:19;12.63;;;1.70;;
69260;SDS011;56378;52.404;20.816;2023-02-01T05:25:45;13.52;;;1.95;;
69260;SDS011;56378;52.404;20.816;2023-02-01T05:28:11;11.30;;;1.93;;
69260;SDS011;56378;52.404;20.816;2023-02-01T05:30:36;9.45;;;1.40;;
69260;SDS011;56378;52.404;20.816;2023-02-01T05:33:02;8.07;;;1.25;;
69260;SDS011;56378;52.404;20.816;2023-02-01T05:35:29;13.48;;;1.40;;
69260;SDS011;56378;52.404;20.816;2023-02-01T05:37:55;9.15;;;1.40;;
69260;SDS011;56378;52.404;20.816;2023-02-01T05:40:20;10.65;;;1.55;;
69260;SDS011;56378;52.404;20.816;2023-02-01T05:42:47;9.10;;;1.30;;
69260;SDS011;56378;52.404;20.816;2023-02-01T05:45:13;11.73;;;1.33;;
69260;SDS011;56378;52.404;20.816;2023-02-01T05:47:38;7.10;;;1.30;;
69260;SDS011;56378;52.404;20.816;2023-02-01T05:50:04;9.90;;;1.50;;
69260;SDS011;56378;52.404;20.816;2023-02-01T05:52:31;11.93;;;1.40;;
69260;SDS011;56378;52.404;20.816;2023-02-01T05:54:57;10.25;;;1.55;;
69260;SDS011;56378;52.404;20.816;2023-02-01T05:57:23;13.65;;;1.33;;
69260;SDS011;56378;52.404;20.816;2023-02-01T05:59:48;12.50;;;1.20;;
69260;SDS011;56378;52.404;20.816;2023-02-01T06:02:14;11.63;;;1.42;;
69260;SDS011;56378;52.404;20.816;2023-02-01T06:04:41;8.98;;;1.20;;
69260;SDS011;56378;52.404;20.816;2023-02-01T06:07:07;13.82;;;1.67;;
69260;SDS011;56378;52.404;20.816;2023-02-01T06:09:35;11.52;;;1.90;;
69260;SDS011;56378;52.404;20.816;2023-02-01T06:12:01;10.15;;;1.27;;
69260;SDS011;56378;52.404;20.816;2023-02-01T06:14:28;15.27;;;1.50;;
69260;SDS011;56378;52.404;20.816;2023-02-01T06:16:54;8.87;;;1.20;;
69260;SDS011;56378;52.404;20.816;2023-02-01T06:19:20;12.23;;;1.70;;
69260;SDS011;56378;52.404;20.816;2023-02-01T06:21:46;10.23;;;1.30;;
69260;SDS011;56378;52.404;20.816;2023-02-01T06:24:12;6.53;;;1.10;;
69260;SDS011;56378;52.404;20.816;2023-02-01T06:26:38;7.55;;;1.05;;
69260;SDS011;56378;52.404;20.816;2023-02-01T06:29:05;8.13;;;1.60;;
69260;SDS011;56378;52.404;20.816;2023-02-01T06:31:32;13.20;;;1.42;;
69260;SDS011;56378;52.404;20.816;2023-02-01T06:33:58;9.68;;;1.50;;
69260;SDS011;56378;52.404;20.816;2023-02-01T06:36:24;7.80;;;1.20;;
69260;SDS011;56378;52.404;20.816;2023-02-01T06:38:49;12.70;;;1.67;;
69260;SDS011;56378;52.404;20.816;2023-02-01T06:41:16;5.63;;;1.00;;
69260;SDS011;56378;52.404;20.816;2023-02-01T06:43:42;8.40;;;1.10;;
69260;SDS011;56378;52.404;20.816;2023-02-01T06:46:09;8.27;;;1.27;;
69260;SDS011;56378;52.404;20.816;2023-02-01T06:48:37;13.17;;;1.50;;
69260;SDS011;56378;52.404;20.816;2023-02-01T06:51:03;11.93;;;1.73;;
69260;SDS011;56378;52.404;20.816;2023-02-01T06:53:29;12.32;;;2.00;;
69260;SDS011;56378;52.404;20.816;2023-02-01T06:55:58;12.13;;;1.50;;
69260;SDS011;56378;52.404;20.816;2023-02-01T06:58:29;9.23;;;1.45;;
69260;SDS011;56378;52.404;20.816;2023-02-01T07:00:57;10.02;;;1.35;;
69260;SDS011;56378;52.404;20.816;2023-02-01T07:03:23;12.38;;;1.27;;
69260;SDS011;56378;52.404;20.816;2023-02-01T07:05:49;11.80;;;1.63;;
69260;SDS011;56378;52.404;20.816;2023-02-01T07:08:14;8.95;;;2.20;;
69260;SDS011;56378;52.404;20.816;2023-02-01T07:10:40;10.00;;;1.20;;
69260;SDS011;56378;52.404;20.816;2023-02-01T07:13:06;10.15;;;1.60;;
69260;SDS011;56378;52.404;20.816;2023-02-01T07:15:32;9.18;;;1.48;;
69260;SDS011;56378;52.404;20.816;2023-02-01T07:17:58;11.03;;;1.47;;
69260;SDS011;56378;52.404;20.816;2023-02-01T07:20:23;13.65;;;1.98;;
69260;SDS011;56378;52.404;20.816;2023-02-01T07:22:54;10.90;;;1.80;;
69260;SDS011;56378;52.404;20.816;2023-02-01T07:25:21;14.55;;;2.50;;
69260;SDS011;56378;52.404;20.816;2023-02-01T07:27:47;10.93;;;2.28;;
69260;SDS011;56378;52.404;20.816;2023-02-01T07:30:13;9.03;;;2.07;;
69260;SDS011;56378;52.404;20.816;2023-02-01T07:32:38;14.35;;;2.55;;
69260;SDS011;56378;52.404;20.816;2023-02-01T07:35:04;13.40;;;3.50;;
69260;SDS011;56378;52.404;20.816;2023-02-01T07:37:30;19.55;;;4.05;;
69260;SDS011;56378;52.404;20.816;2023-02-01T07:39:56;12.37;;;2.27;;
69260;SDS011;56378;52.404;20.816;2023-02-01T07:42:21;14.23;;;2.45;;
69260;SDS011;56378;52.404;20.816;2023-02-01T07:44:47;13.57;;;2.10;;
69260;SDS011;56378;52.404;20.816;2023-02-01T07:47:13;13.95;;;2.40;;
69260;SDS011;56378;52.404;20.816;2023-02-01T07:49:38;13.27;;;2.40;;
69260;SDS011;56378;52.404;20.816;2023-02-01T07:52:04;15.75;;;2.35;;
69260;SDS011;56378;52.404;20.816;2023-02-01T07:54:30;11.20;;;2.33;;
69260;SDS011;56378;52.404;20.816;2023-02-01T07:56:55;10.90;;;2.00;;
69260;SDS011;56378;52.404;20.816;2023-02-01T07:59:21;11.17;;;2.00;;
69260;SDS011;56378;52.404;20.816;2023-02-01T08:01:47;12.77;;;2.20;;
69260;SDS011;56378;52.404;20.816;2023-02-01T08:04:12;14.40;;;2.10;;
69260;SDS011;56378;52.404;20.816;2023-02-01T08:06:39;14.10;;;1.88;;
69260;SDS011;56378;52.404;20.816;2023-02-01T08:09:05;13.43;;;1.83;;
69260;SDS011;56378;52.404;20.816;2023-02-01T08:11:33;13.03;;;2.30;;
69260;SDS011;56378;52.404;20.816;2023-02-01T08:14:00;11.68;;;1.95;;
69260;SDS011;56378;52.404;20.816;2023-02-01T08:16:25;12.32;;;1.67;;
69260;SDS011;56378;52.404;20.816;2023-02-01T08:18:52;13.97;;;2.20;;
69260;SDS011;56378;52.404;20.816;2023-02-01T08:21:20;15.55;;;2.10;;
69260;SDS011;56378;52.404;20.816;2023-02-01T08:23:48;19.58;;;2.25;;
69260;SDS011;56378;52.404;20.816;2023-02-01T08:26:16;11.15;;;2.13;;
69260;SDS011;56378;52.404;20.816;2023-02-01T08:28:45;12.50;;;1.92;;
69260;SDS011;56378;52.404;20.816;2023-02-01T08:31:13;14.77;;;2.03;;
69260;SDS011;56378;52.404;20.816;2023-02-01T08:33:41;14.25;;;2.92;;
69260;SDS011;56378;52.404;20.816;2023-02-01T08:36:09;14.55;;;2.90;;
69260;SDS011;56378;52.404;20.816;2023-02-01T08:38:36;17.00;;;2.45;;
69260;SDS011;56378;52.404;20.816;2023-02-01T08:41:16;10.55;;;2.20;;
69260;SDS011;56378;52.404;20.816;2023-02-01T08:43:43;11.40;;;2.30;;
69260;SDS011;56378;52.404;20.816;2023-02-01T08:46:09;19.33;;;2.25;;
69260;SDS011;56378;52.404;20.816;2023-02-01T08:48:36;11.45;;;2.17;;
69260;SDS011;56378;52.404;20.816;2023-02-01T08:51:03;11.68;;;2.05;;
69260;SDS011;56378;52.404;20.816;2023-02-01T08:53:30;14.63;;;2.10;;
69260;SDS011;56378;52.404;20.816;2023-02-01T08:55:56;10.40;;;1.83;;
69260;SDS011;56378;52.404;20.816;2023-02-01T08:58:22;10.40;;;2.08;;
69260;SDS011;56378;52.404;20.816;2023-02-01T09:00:48;16.65;;;4.38;;
69260;SDS011;56378;52.404;20.816;2023-02-01T09:03:15;13.07;;;2.50;;
69260;SDS011;56378;52.404;20.816;2023-02-01T09:05:41;10.55;;;2.10;;
69260;SDS011;56378;52.404;20.816;2023-02-01T09:08:07;9.70;;;2.03;;
69260;SDS011;56378;52.404;20.816;2023-02-01T09:10:33;14.68;;;2.50;;
69260;SDS011;56378;52.404;20.816;2023-02-01T09:12:59;13.17;;;2.30;;
69260;SDS011;56378;52.404;20.816;2023-02-01T09:15:25;10.25;;;1.73;;
69260;SDS011;56378;52.404;20.816;2023-02-01T09:17:51;11.30;;;1.80;;
69260;SDS011;56378;52.404;20.816;2023-02-01T09:20:17;14.73;;;1.90;;
69260;SDS011;56378;52.404;20.816;2023-02-01T09:22:45;12.10;;;1.90;;
69260;SDS011;56378;52.404;20.816;2023-02-01T09:25:10;12.03;;;2.00;;
69260;SDS011;56378;52.404;20.816;2023-02-01T09:27:36;9.50;;;2.33;;
69260;SDS011;56378;52.404;20.816;2023-02-01T09:30:03;13.07;;;2.00;;
69260;SDS011;56378;52.404;20.816;2023-02-01T09:32:29;12.45;;;1.98;;
69260;SDS011;56378;52.404;20.816;2023-02-01T09:34:55;13.02;;;2.92;;
69260;SDS011;56378;52.404;20.816;2023-02-01T09:37:21;12.82;;;2.15;;
69260;SDS011;56378;52.404;20.816;2023-02-01T09:39:47;11.00;;;1.90;;
69260;SDS011;56378;52.404;20.816;2023-02-01T09:47:49;10.63;;;2.65;;
69260;SDS011;56378;52.404;20.816;2023-02-01T09:50:20;15.30;;;3.58;;
69260;SDS011;56378;52.404;20.816;2023-02-01T09:52:54;15.55;;;4.72;;
69260;SDS011;56378;52.404;20.816;2023-02-01T09:55:32;15.20;;;2.65;;
69260;SDS011;56378;52.404;20.816;2023-02-01T10:00:59;13.10;;;2.72;;
69260;SDS011;56378;52.404;20.816;2023-02-01T10:03:28;11.68;;;2.35;;
69260;SDS011;56378;52.404;20.816;2023-02-01T10:06:09;14.52;;;2.35;;
69260;SDS011;56378;52.404;20.816;2023-02-01T10:20:12;8.23;;;2.03;;
69260;SDS011;56378;52.404;20.816;2023-02-01T10:25:44;10.50;;;1.77;;
69260;SDS011;56378;52.404;20.816;2023-02-01T10:28:17;8.32;;;2.00;;
69260;SDS011;56378;52.404;20.816;2023-02-01T10:30:45;10.65;;;1.92;;
69260;SDS011;56378;52.404;20.816;2023-02-01T10:35:55;10.60;;;1.98;;
69260;SDS011;56378;52.404;20.816;2023-02-01T10:38:29;12.10;;;2.10;;
69260;SDS011;56378;52.404;20.816;2023-02-01T10:41:03;11.90;;;1.70;;
69260;SDS011;56378;52.404;20.816;2023-02-01T10:43:36;8.52;;;2.05;;
69260;SDS011;56378;52.404;20.816;2023-02-01T10:46:04;11.40;;;2.15;;
69260;SDS011;56378;52.404;20.816;2023-02-01T10:48:31;16.80;;;2.22;;
69260;SDS011;56378;52.404;20.816;2023-02-01T10:50:58;12.23;;;2.03;;
69260;SDS011;56378;52.404;20.816;2023-02-01T10:53:34;9.82;;;1.95;;
69260;SDS011;56378;52.404;20.816;2023-02-01T10:56:08;10.30;;;2.00;;
69260;SDS011;56378;52.404;20.816;2023-02-01T10:58:35;14.00;;;2.08;;
69260;SDS011;56378;52.404;20.816;2023-02-01T11:01:08;15.32;;;2.13;;
69260;SDS011;56378;52.404;20.816;2023-02-01T11:08:42;12.18;;;2.22;;
69260;SDS011;56378;52.404;20.816;2023-02-01T11:11:10;9.13;;;2.33;;
69260;SDS011;56378;52.404;20.816;2023-02-01T11:13:37;10.90;;;2.10;;
69260;SDS011;56378;52.404;20.816;2023-02-01T11:16:04;10.68;;;2.20;;
69260;SDS011;56378;52.404;20.816;2023-02-01T11:18:34;11.13;;;2.28;;
69260;SDS011;56378;52.404;20.816;2023-02-01T11:21:02;12.60;;;1.90;;
69260;SDS011;56378;52.404;20.816;2023-02-01T11:23:29;11.10;;;2.15;;
69260;SDS011;56378;52.404;20.816;2023-02-01T11:26:01;9.18;;;2.30;;
69260;SDS011;56378;52.404;20.816;2023-02-01T11:28:38;8.98;;;1.88;;
69260;SDS011;56378;52.404;20.816;2023-02-01T11:31:10;10.38;;;1.83;;
69260;SDS011;56378;52.404;20.816;2023-02-01T11:33:39;13.10;;;2.00;;
69260;SDS011;56378;52.404;20.816;2023-02-01T11:36:18;12.02;;;2.00;;
69260;SDS011;56378;52.404;20.816;2023-02-01T11:39:08;10.52;;;1.92;;
69260;SDS011;56378;52.404;20.816;2023-02-01T11:41:42;12.43;;;1.90;;
69260;SDS011;56378;52.404;20.816;2023-02-01T11:44:30;12.13;;;2.67;;
69260;SDS011;56378;52.404;20.816;2023-02-01T11:47:12;5.75;;;1.52;;
69260;SDS011;56378;52.404;20.816;2023-02-01T11:50:03;33.30;;;6.82;;
69260;SDS011;56378;52.404;20.816;2023-02-01T11:55:19;7.30;;;1.88;;
69260;SDS011;56378;52.404;20.816;2023-02-01T12:14:23;14.48;;;2.22;;
69260;SDS011;56378;52.404;20.816;2023-02-01T12:22:44;12.35;;;2.40;;
69260;SDS011;56378;52.404;20.816;2023-02-01T12:31:16;12.05;;;2.75;;
69260;SDS011;56378;52.404;20.816;2023-02-01T12:33:59;22.20;;;4.85;;
69260;SDS011;56378;52.404;20.816;2023-02-01T12:36:49;19.10;;;4.55;;
69260;SDS011;56378;52.404;20.816;2023-02-01T12:39:32;23.02;;;6.60;;
69260;SDS011;56378;52.404;20.816;2023-02-01T12:42:14;14.18;;;3.08;;
69260;SDS011;56378;52.404;20.816;2023-02-01T12:44:52;14.27;;;3.60;;
69260;SDS011;56378;52.404;20.816;2023-02-01T12:47:27;13.93;;;3.00;;
69260;SDS011;56378;52.404;20.816;2023-02-01T12:50:05;14.18;;;3.60;;
69260;SDS011;56378;52.404;20.816;2023-02-01T12:52:46;14.85;;;3.38;;
69260;SDS011;56378;52.404;20.816;2023-02-01T12:57:43;10.27;;;2.17;;
69260;SDS011;56378;52.404;20.816;2023-02-01T13:11:16;14.18;;;2.42;;
69260;SDS011;56378;52.404;20.816;2023-02-01T13:17:04;13.40;;;1.95;;
69260;SDS011;56378;52.404;20.816;2023-02-01T13:19:40;13.13;;;2.38;;
69260;SDS011;56378;52.404;20.816;2023-02-01T13:22:31;11.60;;;2.70;;
69260;SDS011;56378;52.404;20.816;2023-02-01T13:24:59;10.13;;;2.17;;
69260;SDS011;56378;52.404;20.816;2023-02-01T13:27:28;10.32;;;2.17;;
69260;SDS011;56378;52.404;20.816;2023-02-01T13:30:07;8.70;;;1.85;;
69260;SDS011;56378;52.404;20.816;2023-02-01T13:32:52;8.95;;;1.95;;
69260;SDS011;56378;52.404;20.816;2023-02-01T13:41:10;8.95;;;1.83;;
69260;SDS011;56378;52.404;20.816;2023-02-01T13:43:50;10.02;;;1.90;;
69260;SDS011;56378;52.404;20.816;2023-02-01T13:46:18;11.30;;;2.38;;
69260;SDS011;56378;52.404;20.816;2023-02-01T13:49:00;7.30;;;1.70;;
69260;SDS011;56378;52.404;20.816;2023-02-01T13:54:06;10.48;;;1.75;;
69260;SDS011;56378;52.404;20.816;2023-02-01T13:56:41;7.22;;;1.92;;
69260;SDS011;56378;52.404;20.816;2023-02-01T14:05:01;10.18;;;2.20;;
69260;SDS011;56378;52.404;20.816;2023-02-01T14:07:28;7.23;;;2.03;;
69260;SDS011;56378;52.404;20.816;2023-02-01T14:09:54;12.40;;;2.65;;
69260;SDS011;56378;52.404;20.816;2023-02-01T14:15:32;7.38;;;2.20;;
69260;SDS011;56378;52.404;20.816;2023-02-01T14:17:57;10.13;;;2.25;;
69260;SDS011;56378;52.404;20.816;2023-02-01T14:20:42;9.40;;;2.00;;
69260;SDS011;56378;52.404;20.816;2023-02-01T14:23:12;10.20;;;2.00;;
69260;SDS011;56378;52.404;20.816;2023-02-01T14:25:43;5.72;;;1.90;;
69260;SDS011;56378;52.404;20.816;2023-02-01T14:28:21;8.80;;;1.93;;
69260;SDS011;56378;52.404;20.816;2023-02-01T14:30:54;7.32;;;2.00;;
69260;SDS011;56378;52.404;20.816;2023-02-01T14:33:23;6.80;;;2.05;;
69260;SDS011;56378;52.404;20.816;2023-02-01T14:36:00;9.40;;;1.95;;
69260;SDS011;56378;52.404;20.816;2023-02-01T14:38:32;7.95;;;2.45;;
69260;SDS011;56378;52.404;20.816;2023-02-01T14:41:12;8.23;;;2.10;;
69260;SDS011;56378;52.404;20.816;2023-02-01T14:43:49;7.78;;;1.80;;
69260;SDS011;56378;52.404;20.816;2023-02-01T14:49:30;8.90;;;2.10;;
69260;SDS011;56378;52.404;20.816;2023-02-01T14:51:59;9.10;;;1.90;;
69260;SDS011;56378;52.404;20.816;2023-02-01T14:54:30;10.37;;;2.13;;
69260;SDS011;56378;52.404;20.816;2023-02-01T14:56:56;8.32;;;1.95;;
69260;SDS011;56378;52.404;20.816;2023-02-01T14:59:23;9.00;;;1.92;;
69260;SDS011;56378;52.404;20.816;2023-02-01T15:01:58;8.00;;;2.15;;
69260;SDS011;56378;52.404;20.816;2023-02-01T15:04:26;5.95;;;1.77;;
69260;SDS011;56378;52.404;20.816;2023-02-01T15:09:29;5.15;;;1.73;;
69260;SDS011;56378;52.404;20.816;2023-02-01T15:14:30;7.20;;;2.80;;
69260;SDS011;56378;52.404;20.816;2023-02-01T15:17:02;8.63;;;2.47;;
69260;SDS011;56378;52.404;20.816;2023-02-01T15:19:29;5.63;;;2.20;;
69260;SDS011;56378;52.404;20.816;2023-02-01T15:21:58;7.45;;;2.85;;
69260;SDS011;56378;52.404;20.816;2023-02-01T15:24:28;4.80;;;2.08;;
69260;SDS011;56378;52.404;20.816;2023-02-01T15:26:58;5.77;;;2.17;;
69260;SDS011;56378;52.404;20.816;2023-02-01T15:29:29;8.75;;;2.65;;
69260;SDS011;56378;52.404;20.816;2023-02-01T15:31:57;7.13;;;2.33;;
69260;SDS011;56378;52.404;20.816;2023-02-01T15:34:33;8.23;;;2.67;;
69260;SDS011;56378;52.404;20.816;2023-02-01T15:37:13;8.68;;;2.90;;
69260;SDS011;56378;52.404;20.816;2023-02-01T15:42:35;13.65;;;3.80;;
69260;SDS011;56378;52.404;20.816;2023-02-01T15:45:22;10.82;;;3.42;;
69260;SDS011;56378;52.404;20.816;2023-02-01T15:47:52;14.90;;;4.03;;
69260;SDS011;56378;52.404;20.816;2023-02-01T15:50:20;11.18;;;3.55;;
69260;SDS011;56378;52.404;20.816;2023-02-01T15:52:53;12.87;;;3.93;;
69260;SDS011;56378;52.404;20.816;2023-02-01T15:55:36;15.15;;;4.07;;
69260;SDS011;56378;52.404;20.816;2023-02-01T15:58:05;13.73;;;3.78;;
69260;SDS011;56378;52.404;20.816;2023-02-01T16:00:39;14.93;;;4.63;;
69260;SDS011;56378;52.404;20.816;2023-02-01T16:03:23;9.80;;;2.65;;
69260;SDS011;56378;52.404;20.816;2023-02-01T16:11:28;12.45;;;4.00;;
69260;SDS011;56378;52.404;20.816;2023-02-01T16:13:58;7.13;;;3.13;;
69260;SDS011;56378;52.404;20.816;2023-02-01T16:16:26;12.00;;;4.07;;
69260;SDS011;56378;52.404;20.816;2023-02-01T16:18:53;11.63;;;4.20;;
69260;SDS011;56378;52.404;20.816;2023-02-01T16:21:18;10.45;;;4.28;;
69260;SDS011;56378;52.404;20.816;2023-02-01T16:23:48;10.38;;;4.07;;
69260;SDS011;56378;52.404;20.816;2023-02-01T16:26:17;10.93;;;3.63;;
69260;SDS011;56378;52.404;20.816;2023-02-01T16:28:44;11.57;;;3.40;;
69260;SDS011;56378;52.404;20.816;2023-02-01T16:31:11;9.10;;;3.90;;
69260;SDS011;56378;52.404;20.816;2023-02-01T16:33:53;9.90;;;3.35;;
69260;SDS011;56378;52.404;20.816;2023-02-01T16:36:19;9.13;;;2.90;;
69260;SDS011;56378;52.404;20.816;2023-02-01T16:38:45;9.75;;;3.30;;
69260;SDS011;56378;52.404;20.816;2023-02-01T16:44:03;9.77;;;3.10;;
69260;SDS011;56378;52.404;20.816;2023-02-01T16:46:29;12.33;;;3.57;;
69260;SDS011;56378;52.404;20.816;2023-02-01T16:48:59;13.85;;;4.40;;
69260;SDS011;56378;52.404;20.816;2023-02-01T16:51:26;11.98;;;4.30;;
69260;SDS011;56378;52.404;20.816;2023-02-01T16:53:57;12.95;;;5.28;;
69260;SDS011;56378;52.404;20.816;2023-02-01T16:56:33;11.75;;;3.80;;
69260;SDS011;56378;52.404;20.816;2023-02-01T16:59:00;8.10;;;3.20;;
69260;SDS011;56378;52.404;20.816;2023-02-01T17:01:26;9.20;;;3.35;;
69260;SDS011;56378;52.404;20.816;2023-02-01T17:03:52;8.75;;;3.22;;
69260;SDS011;56378;52.404;20.816;2023-02-01T17:06:23;12.32;;;3.55;;
69260;SDS011;56378;52.404;20.816;2023-02-01T17:08:54;10.15;;;3.28;;
69260;SDS011;56378;52.404;20.816;2023-02-01T17:11:23;9.20;;;2.60;;
69260;SDS011;56378;52.404;20.816;2023-02-01T17:13:49;7.78;;;2.70;;
69260;SDS011;56378;52.404;20.816;2023-02-01T17:16:19;9.98;;;3.22;;
69260;SDS011;56378;52.404;20.816;2023-02-01T17:18:53;8.02;;;2.53;;
69260;SDS011;56378;52.404;20.816;2023-02-01T17:21:25;6.70;;;2.42;;